createdAt,value
2023-04-20T00:02:17.777Z,2.60
2023-04-20T00:04:45.001Z,2.37
2023-04-20T00:07:11.989Z,3.00
2023-04-20T00:09:39.024Z,3.50
2023-04-20T00:12:06.226Z,2.43
2023-04-20T00:14:33.020Z,3.17
2023-04-20T00:17:00.227Z,3.07
2023-04-20T00:19:28.576Z,2.30
2023-04-20T00:21:55.410Z,2.70
2023-04-20T00:24:23.894Z,2.23
2023-04-20T00:26:50.906Z,2.67
2023-04-20T00:29:18.009Z,3.10
2023-04-20T00:31:45.215Z,2.40
2023-04-20T00:34:12.184Z,2.40
2023-04-20T00:36:39.079Z,2.93
2023-04-20T00:39:06.020Z,2.60
2023-04-20T00:41:33.042Z,2.10
2023-04-20T00:44:00.381Z,2.50
2023-04-20T00:46:27.459Z,2.27
2023-04-20T00:48:55.034Z,2.37
2023-04-20T00:51:22.927Z,2.00
2023-04-20T00:53:49.961Z,2.30
2023-04-20T00:56:17.220Z,2.40
2023-04-20T00:58:44.347Z,2.60
2023-04-20T01:01:12.249Z,2.37
2023-04-20T01:03:42.600Z,2.23
2023-04-20T01:06:11.222Z,2.50
2023-04-20T01:08:50.754Z,2.67
2023-04-20T01:11:18.383Z,2.30
2023-04-20T01:13:45.650Z,2.50
2023-04-20T01:16:13.357Z,2.40
2023-04-20T01:18:44.608Z,2.67
2023-04-20T01:21:16.963Z,2.47
2023-04-20T01:23:44.288Z,2.57
2023-04-20T01:26:13.328Z,2.60
2023-04-20T01:28:40.366Z,2.87
2023-04-20T01:31:08.453Z,2.93
2023-04-20T01:33:35.728Z,3.10
2023-04-20T01:36:03.025Z,2.60
2023-04-20T01:38:33.107Z,2.80
2023-04-20T01:41:00.321Z,2.33
2023-04-20T01:43:28.011Z,2.87
2023-04-20T01:45:54.885Z,3.10
2023-04-20T01:48:22.758Z,2.50
2023-04-20T01:50:53.341Z,2.53
2023-04-20T01:53:21.025Z,2.60
2023-04-20T01:55:48.757Z,2.80
2023-04-20T01:58:16.075Z,2.63
2023-04-20T02:00:43.363Z,2.40
2023-04-20T02:03:10.548Z,2.43
2023-04-20T02:05:37.708Z,2.93
2023-04-20T02:08:05.070Z,2.83
2023-04-20T02:10:32.105Z,3.17
2023-04-20T02:12:59.003Z,2.83
2023-04-20T02:15:26.107Z,2.60
2023-04-20T02:17:53.011Z,3.40
2023-04-20T02:20:20.607Z,3.00
2023-04-20T02:22:47.441Z,3.37
2023-04-20T02:25:14.666Z,2.90
2023-04-20T02:27:42.376Z,3.63
2023-04-20T02:30:10.733Z,3.07
2023-04-20T02:32:37.756Z,3.50
2023-04-20T02:35:05.035Z,3.60
2023-04-20T02:37:31.853Z,3.50
2023-04-20T02:39:58.982Z,3.67
2023-04-20T02:42:25.937Z,3.63
2023-04-20T02:44:53.031Z,3.37
2023-04-20T02:47:20.254Z,3.23
2023-04-20T02:49:47.724Z,3.57
2023-04-20T02:52:15.046Z,3.47
2023-04-20T02:54:42.089Z,3.60
2023-04-20T02:57:08.990Z,3.50
2023-04-20T02:59:36.066Z,3.60
2023-04-20T03:02:03.174Z,3.50
2023-04-20T03:04:31.271Z,3.60
2023-04-20T03:06:59.085Z,4.00
2023-04-20T03:09:26.302Z,3.70
2023-04-20T03:11:53.274Z,4.03
2023-04-20T03:14:20.483Z,3.97
2023-04-20T03:16:47.691Z,3.47
2023-04-20T03:19:14.511Z,3.60
2023-04-20T03:21:41.498Z,3.87
2023-04-20T03:24:08.361Z,3.87
2023-04-20T03:26:35.176Z,3.77
2023-04-20T03:29:02.533Z,3.87
2023-04-20T03:31:29.538Z,3.70
2023-04-20T03:33:59.165Z,3.60
2023-04-20T03:36:26.044Z,3.87
2023-04-20T03:38:52.854Z,3.63
2023-04-20T03:41:19.791Z,3.23
2023-04-20T03:43:46.653Z,3.77
2023-04-20T03:46:13.618Z,4.17
2023-04-20T03:48:40.879Z,4.27
2023-04-20T03:51:07.796Z,4.00
2023-04-20T03:53:35.752Z,3.80
2023-04-20T03:56:03.447Z,4.17
2023-04-20T03:58:31.210Z,4.60
2023-04-20T04:01:03.388Z,4.70
2023-04-20T04:03:30.598Z,4.53
2023-04-20T04:05:57.623Z,4.57
2023-04-20T04:08:24.700Z,4.30
2023-04-20T04:10:51.773Z,4.47
2023-04-20T04:13:18.755Z,4.93
2023-04-20T04:15:45.637Z,5.30
2023-04-20T04:18:12.544Z,4.63
2023-04-20T04:20:39.507Z,5.13
2023-04-20T04:23:07.114Z,5.37
2023-04-20T04:25:34.693Z,5.03
2023-04-20T04:28:01.848Z,5.67
2023-04-20T04:30:29.631Z,5.30
2023-04-20T04:32:56.842Z,6.13
2023-04-20T04:35:24.161Z,5.47
2023-04-20T04:37:52.944Z,5.77
2023-04-20T04:40:20.222Z,5.77
2023-04-20T04:42:47.860Z,5.70
2023-04-20T04:45:15.000Z,5.73
2023-04-20T04:47:42.726Z,5.97
2023-04-20T04:50:11.036Z,6.53
2023-04-20T04:52:38.004Z,6.33
2023-04-20T04:55:08.515Z,6.40
2023-04-20T04:57:36.572Z,5.27
2023-04-20T05:00:07.158Z,6.20
2023-04-20T05:02:34.362Z,6.77
2023-04-20T05:05:01.480Z,5.27
2023-04-20T05:07:28.472Z,6.50
2023-04-20T05:09:55.375Z,6.03
2023-04-20T05:12:22.486Z,6.53
2023-04-20T05:14:49.503Z,14.40
2023-04-20T05:17:16.498Z,5.60
2023-04-20T05:19:43.587Z,6.00
2023-04-20T05:22:10.850Z,5.97
2023-04-20T05:24:37.703Z,6.40
2023-04-20T05:27:04.785Z,5.90
2023-04-20T05:29:32.783Z,6.83
2023-04-20T05:31:59.919Z,6.90
2023-04-20T05:34:26.977Z,6.23
2023-04-20T05:36:55.094Z,6.27
2023-04-20T05:39:22.267Z,6.43
2023-04-20T05:41:49.985Z,6.07
2023-04-20T05:44:17.371Z,6.43
2023-04-20T05:46:44.335Z,6.67
2023-04-20T05:49:11.265Z,6.27
2023-04-20T05:51:38.365Z,6.30
2023-04-20T05:54:06.021Z,6.60
2023-04-20T05:56:33.066Z,7.33
2023-04-20T05:59:00.689Z,6.80
2023-04-20T06:01:27.918Z,7.17
2023-04-20T06:03:54.947Z,7.47
2023-04-20T06:06:21.971Z,7.60
2023-04-20T06:08:48.899Z,7.10
2023-04-20T06:11:15.834Z,7.43
2023-04-20T06:13:42.835Z,7.33
2023-04-20T06:16:11.290Z,7.47
2023-04-20T06:18:38.204Z,8.23
2023-04-20T06:21:05.209Z,6.63
2023-04-20T06:23:32.336Z,7.13
2023-04-20T06:25:59.200Z,8.17
2023-04-20T06:28:26.209Z,7.60
2023-04-20T06:30:53.056Z,7.97
2023-04-20T06:33:20.040Z,7.47
2023-04-20T06:35:46.940Z,8.27
2023-04-20T06:38:14.337Z,8.10
2023-04-20T06:40:41.148Z,8.67
2023-04-20T06:43:08.297Z,8.47
2023-04-20T06:45:35.168Z,8.03
2023-04-20T06:48:02.544Z,8.97
2023-04-20T06:50:29.753Z,8.50
2023-04-20T06:52:56.851Z,8.67
2023-04-20T06:55:23.908Z,8.87
2023-04-20T06:57:53.193Z,8.87
2023-04-20T07:00:20.433Z,9.20
2023-04-20T07:02:51.452Z,9.13
2023-04-20T07:05:19.067Z,9.43
2023-04-20T07:07:46.407Z,9.10
2023-04-20T07:10:15.464Z,8.97
2023-04-20T07:12:43.814Z,8.77
2023-04-20T07:15:12.217Z,8.37
2023-04-20T07:17:39.429Z,9.13
2023-04-20T07:20:10.524Z,9.73
2023-04-20T07:22:38.972Z,8.87
2023-04-20T07:25:09.808Z,9.83
2023-04-20T07:27:39.117Z,8.67
2023-04-20T07:30:07.770Z,9.17
2023-04-20T07:32:35.397Z,9.20
2023-04-20T07:35:02.636Z,9.03
2023-04-20T07:37:30.137Z,9.53
2023-04-20T07:39:56.866Z,9.00
2023-04-20T07:42:23.897Z,8.60
2023-04-20T07:44:51.043Z,9.43
2023-04-20T07:47:18.158Z,9.00
2023-04-20T07:49:45.231Z,8.70
2023-04-20T07:52:16.909Z,9.10
2023-04-20T07:54:47.688Z,8.70
2023-04-20T07:57:15.355Z,9.13
2023-04-20T07:59:42.508Z,9.17
2023-04-20T08:02:09.602Z,9.20
2023-04-20T08:04:38.455Z,9.00
2023-04-20T08:07:05.606Z,9.13
2023-04-20T08:09:32.416Z,9.03
2023-04-20T08:11:59.449Z,10.23
2023-04-20T08:14:28.612Z,10.47
2023-04-20T08:16:55.692Z,10.57
2023-04-20T08:19:27.815Z,10.30
2023-04-20T08:21:55.039Z,9.33
2023-04-20T08:24:21.975Z,9.70
2023-04-20T08:26:49.691Z,9.73
2023-04-20T08:29:16.684Z,10.07
2023-04-20T08:31:43.557Z,10.30
2023-04-20T08:34:11.936Z,9.90
2023-04-20T08:36:38.864Z,10.63
2023-04-20T08:39:12.494Z,11.00
2023-04-20T08:41:39.500Z,11.03
2023-04-20T08:44:08.047Z,11.23
2023-04-20T08:46:35.473Z,10.33
2023-04-20T08:49:03.843Z,11.17
2023-04-20T08:51:32.904Z,12.07
2023-04-20T08:54:06.922Z,11.97
2023-04-20T08:56:38.798Z,11.67
2023-04-20T08:59:09.640Z,12.47
2023-04-20T09:01:37.952Z,13.03
2023-04-20T09:04:20.259Z,11.87
2023-04-20T09:06:52.051Z,12.93
2023-04-20T09:09:20.196Z,12.83
2023-04-20T09:11:47.487Z,13.13
2023-04-20T09:14:16.963Z,11.50
2023-04-20T09:17:00.943Z,12.17
2023-04-20T09:19:32.791Z,11.70
2023-04-20T09:22:06.920Z,10.87
2023-04-20T09:24:35.513Z,10.57
2023-04-20T09:27:14.487Z,11.13
2023-04-20T09:29:41.631Z,10.33
2023-04-20T09:32:09.061Z,10.60
2023-04-20T09:34:45.882Z,14.97
2023-04-20T09:37:16.808Z,9.50
2023-04-20T09:39:45.996Z,10.50
2023-04-20T09:42:15.083Z,10.80
2023-04-20T09:44:42.832Z,11.63
2023-04-20T09:47:21.780Z,10.07
2023-04-20T09:49:48.638Z,10.50
2023-04-20T09:52:19.036Z,10.67
2023-04-20T09:54:46.516Z,10.27
2023-04-20T09:57:15.048Z,9.67
2023-04-20T09:59:47.816Z,10.03
2023-04-20T10:02:15.362Z,10.03
2023-04-20T10:04:59.021Z,10.23
2023-04-20T10:07:26.908Z,9.93
2023-04-20T10:10:08.690Z,10.73
2023-04-20T10:12:48.225Z,10.47
2023-04-20T10:15:15.285Z,10.80
2023-04-20T10:17:42.151Z,11.17
2023-04-20T10:20:41.394Z,10.53
2023-04-20T10:23:12.621Z,9.97
2023-04-20T10:25:39.632Z,9.50
2023-04-20T10:28:10.735Z,8.93
2023-04-20T10:30:50.085Z,7.40
2023-04-20T10:33:18.174Z,7.43
2023-04-20T10:35:56.355Z,7.73
2023-04-20T10:38:36.532Z,7.53
2023-04-20T10:41:10.198Z,8.23
2023-04-20T10:43:39.314Z,7.83
2023-04-20T10:46:20.296Z,8.97
2023-04-20T10:49:01.738Z,8.00
2023-04-20T10:51:29.017Z,8.60
2023-04-20T10:54:15.404Z,9.03
2023-04-20T10:56:54.317Z,8.33
2023-04-20T10:59:23.591Z,8.57
2023-04-20T11:01:51.804Z,7.77
2023-04-20T11:04:22.071Z,8.53
2023-04-20T11:06:49.057Z,8.10
2023-04-20T11:09:28.583Z,8.93
2023-04-20T11:12:09.694Z,8.30
2023-04-20T11:14:39.179Z,8.20
2023-04-20T11:17:06.842Z,8.50
2023-04-20T11:19:36.253Z,8.23
2023-04-20T11:22:05.615Z,8.23
2023-04-20T11:24:34.575Z,8.93
2023-04-20T11:27:03.175Z,9.37
2023-04-20T11:29:37.037Z,8.73
2023-04-20T11:32:09.741Z,9.03
2023-04-20T11:34:38.818Z,8.87
2023-04-20T11:37:10.654Z,8.57
2023-04-20T11:39:38.396Z,9.83
2023-04-20T11:42:05.990Z,9.93
2023-04-20T11:44:33.304Z,12.13
2023-04-20T11:47:01.383Z,9.07
2023-04-20T11:49:29.404Z,9.17
2023-04-20T11:51:56.262Z,10.07
2023-04-20T11:54:26.642Z,10.47
2023-04-20T11:56:54.229Z,9.33
2023-04-20T11:59:21.823Z,11.67
2023-04-20T12:01:48.678Z,11.33
2023-04-20T12:04:16.460Z,10.70
2023-04-20T12:06:44.142Z,10.10
2023-04-20T12:09:11.222Z,10.67
2023-04-20T12:11:38.241Z,11.37
2023-04-20T12:14:05.407Z,11.07
2023-04-20T12:16:32.610Z,10.97
2023-04-20T12:18:59.698Z,11.23
2023-04-20T12:21:27.556Z,12.50
2023-04-20T12:23:54.468Z,12.20
2023-04-20T12:26:25.277Z,12.70
2023-04-20T12:28:58.779Z,13.00
2023-04-20T12:31:26.642Z,13.60
2023-04-20T12:33:53.880Z,14.03
2023-04-20T12:36:21.010Z,13.27
2023-04-20T12:38:47.855Z,13.20
2023-04-20T12:41:15.595Z,13.13
2023-04-20T12:43:42.695Z,14.77
2023-04-20T12:46:09.786Z,13.00
2023-04-20T12:48:36.820Z,13.77
2023-04-20T12:51:03.782Z,14.20
2023-04-20T12:53:30.935Z,14.10
2023-04-20T12:56:01.289Z,13.47
2023-04-20T12:58:28.662Z,14.83
2023-04-20T13:00:55.779Z,14.83
2023-04-20T13:03:22.808Z,15.40
2023-04-20T13:05:49.930Z,14.97
2023-04-20T13:08:17.460Z,14.90
2023-04-20T13:10:44.683Z,14.27
2023-04-20T13:13:11.869Z,13.33
2023-04-20T13:15:39.620Z,14.30
2023-04-20T13:18:07.290Z,13.60
2023-04-20T13:20:34.265Z,13.00
2023-04-20T13:23:02.063Z,13.23
2023-04-20T13:25:32.933Z,12.80
2023-04-20T13:28:01.287Z,13.40
2023-04-20T13:30:28.565Z,13.23
2023-04-20T13:32:55.850Z,13.47
2023-04-20T13:35:24.133Z,13.00
2023-04-20T13:37:51.157Z,13.47
2023-04-20T13:40:17.983Z,12.70
2023-04-20T13:42:44.967Z,12.67
2023-04-20T13:45:12.510Z,11.23
2023-04-20T13:47:40.661Z,12.30
2023-04-20T13:50:08.969Z,14.30
2023-04-20T13:52:36.474Z,11.80
2023-04-20T13:55:04.219Z,11.73
2023-04-20T13:57:34.103Z,11.83
2023-04-20T14:00:01.951Z,13.10
2023-04-20T14:02:29.556Z,13.00
2023-04-20T14:04:56.950Z,13.40
2023-04-20T14:07:23.935Z,12.80
2023-04-20T14:09:52.923Z,12.37
2023-04-20T14:12:19.998Z,12.43
2023-04-20T14:14:46.901Z,12.47
2023-04-20T14:17:14.372Z,11.80
2023-04-20T14:19:41.269Z,12.00
2023-04-20T14:22:08.322Z,12.63
2023-04-20T14:24:35.217Z,13.10
2023-04-20T14:27:02.222Z,11.57
2023-04-20T14:29:29.031Z,12.13
2023-04-20T14:31:56.041Z,12.63
2023-04-20T14:34:22.887Z,11.93
2023-04-20T14:36:49.819Z,11.60
2023-04-20T14:39:19.961Z,12.70
2023-04-20T14:41:47.480Z,11.30
2023-04-20T14:44:14.448Z,11.03
2023-04-20T14:46:42.540Z,12.07
2023-04-20T14:49:10.386Z,11.40
2023-04-20T14:51:37.349Z,12.20
2023-04-20T14:54:04.336Z,12.07
2023-04-20T14:56:31.438Z,12.20
2023-04-20T14:58:59.852Z,12.70
2023-04-20T15:01:27.878Z,12.30
2023-04-20T15:03:55.348Z,11.60
2023-04-20T15:06:22.606Z,12.57
2023-04-20T15:08:49.629Z,12.23
2023-04-20T15:11:16.513Z,11.60
2023-04-20T15:13:43.930Z,11.87
2023-04-20T15:16:13.409Z,12.00
2023-04-20T15:18:40.305Z,12.20
2023-04-20T15:21:08.634Z,11.37
2023-04-20T15:23:35.726Z,11.23
2023-04-20T15:26:03.054Z,11.50
2023-04-20T15:28:30.056Z,11.10
2023-04-20T15:30:56.867Z,11.97
2023-04-20T15:33:23.828Z,12.13
2023-04-20T15:35:50.651Z,11.90
2023-04-20T15:38:18.187Z,11.80
2023-04-20T15:40:45.160Z,11.03
2023-04-20T15:43:11.930Z,11.90
2023-04-20T15:45:38.815Z,13.10
2023-04-20T15:48:06.497Z,12.90
2023-04-20T15:50:33.344Z,12.77
2023-04-20T15:53:00.209Z,13.00
2023-04-20T15:55:27.462Z,12.87
2023-04-20T15:58:00.606Z,11.53
2023-04-20T16:00:27.795Z,11.50
2023-04-20T16:02:55.032Z,11.23
2023-04-20T16:05:22.553Z,10.93
2023-04-20T16:07:51.631Z,11.07
2023-04-20T16:10:18.649Z,10.73
2023-04-20T16:12:45.817Z,10.60
2023-04-20T16:15:12.892Z,10.03
2023-04-20T16:17:39.755Z,10.67
2023-04-20T16:20:07.417Z,10.33
2023-04-20T16:22:34.281Z,10.60
2023-04-20T16:25:01.082Z,10.67
2023-04-20T16:27:28.052Z,10.50
2023-04-20T16:29:55.049Z,9.73
2023-04-20T16:32:22.279Z,10.73
2023-04-20T16:34:49.501Z,10.40
2023-04-20T16:37:16.593Z,10.07
2023-04-20T16:39:43.776Z,9.73
2023-04-20T16:42:10.652Z,10.17
2023-04-20T16:44:38.598Z,10.23
2023-04-20T16:47:07.464Z,10.30
2023-04-20T16:49:37.571Z,10.37
2023-04-20T16:52:04.524Z,9.83
2023-04-20T16:54:31.380Z,10.30
2023-04-20T16:57:01.680Z,10.97
2023-04-20T16:59:28.603Z,10.77
2023-04-20T17:01:55.554Z,10.17
2023-04-20T17:04:23.062Z,10.60
2023-04-20T17:06:50.506Z,10.37
2023-04-20T17:09:17.626Z,10.53
2023-04-20T17:11:44.584Z,11.37
2023-04-20T17:14:11.662Z,10.70
2023-04-20T17:16:38.533Z,10.73
2023-04-20T17:19:05.555Z,11.40
2023-04-20T17:21:32.589Z,10.20
2023-04-20T17:23:59.794Z,11.37
2023-04-20T17:26:29.384Z,11.33
2023-04-20T17:28:56.515Z,11.47
2023-04-20T17:31:23.591Z,10.90
2023-04-20T17:33:50.796Z,11.37
2023-04-20T17:36:17.843Z,12.03
2023-04-20T17:38:44.590Z,10.83
2023-04-20T17:41:11.652Z,10.73
2023-04-20T17:43:40.612Z,10.83
2023-04-20T17:46:08.379Z,11.00
2023-04-20T17:48:35.482Z,11.60
2023-04-20T17:51:02.405Z,11.40
2023-04-20T17:53:29.309Z,12.10
2023-04-20T17:55:56.321Z,12.20
2023-04-20T17:58:25.140Z,11.63
2023-04-20T18:00:52.134Z,11.97
2023-04-20T18:03:20.207Z,11.17
2023-04-20T18:05:47.623Z,10.73
2023-04-20T18:08:15.814Z,10.10
2023-04-20T18:10:42.838Z,10.60
2023-04-20T18:13:09.987Z,10.23
2023-04-20T18:15:36.894Z,10.67
2023-04-20T18:18:04.385Z,10.43
2023-04-20T18:20:32.576Z,10.80
2023-04-20T18:22:59.596Z,9.90
2023-04-20T18:25:26.731Z,10.47
2023-04-20T18:27:56.694Z,10.60
2023-04-20T18:30:23.960Z,10.70
2023-04-20T18:32:51.276Z,10.63
2023-04-20T18:35:19.528Z,10.47
2023-04-20T18:37:46.585Z,10.30
2023-04-20T18:40:15.497Z,11.20
2023-04-20T18:42:43.454Z,10.33
2023-04-20T18:45:12.463Z,11.00
2023-04-20T18:47:39.950Z,11.03
2023-04-20T18:50:07.371Z,10.57
2023-04-20T18:52:34.535Z,10.83
2023-04-20T18:55:01.685Z,10.57
2023-04-20T18:57:29.284Z,10.40
2023-04-20T18:59:56.702Z,11.03
2023-04-20T19:02:24.281Z,11.47
2023-04-20T19:04:51.384Z,10.77
2023-04-20T19:07:18.940Z,11.70
2023-04-20T19:09:45.918Z,11.00
2023-04-20T19:12:12.950Z,10.83
2023-04-20T19:14:40.164Z,10.77
2023-04-20T19:17:07.682Z,10.87
2023-04-20T19:19:34.754Z,11.80
2023-04-20T19:22:03.630Z,10.60
2023-04-20T19:24:32.237Z,11.50
2023-04-20T19:26:59.408Z,10.90
2023-04-20T19:29:26.512Z,10.77
2023-04-20T19:31:53.543Z,11.10
2023-04-20T19:34:21.498Z,11.17
2023-04-20T19:36:48.943Z,11.23
2023-04-20T19:39:16.118Z,11.10
2023-04-20T19:41:43.075Z,11.60
2023-04-20T19:44:10.620Z,10.83
2023-04-20T19:46:38.887Z,10.77
2023-04-20T19:49:06.563Z,11.97
2023-04-20T19:51:33.789Z,11.77
2023-04-20T19:54:02.307Z,11.67
2023-04-20T19:56:29.238Z,11.10
2023-04-20T19:58:55.985Z,11.37
2023-04-20T20:01:23.044Z,11.40
2023-04-20T20:03:50.325Z,10.77
2023-04-20T20:06:17.586Z,11.57
2023-04-20T20:08:44.584Z,11.30
2023-04-20T20:11:11.785Z,11.57
2023-04-20T20:13:38.588Z,11.23
2023-04-20T20:16:05.730Z,11.23
2023-04-20T20:18:32.732Z,12.27
2023-04-20T20:20:59.465Z,12.60
2023-04-20T20:23:26.474Z,12.53
2023-04-20T20:25:53.380Z,12.00
2023-04-20T20:28:20.700Z,11.37
2023-04-20T20:30:47.573Z,12.23
2023-04-20T20:33:15.027Z,13.10
2023-04-20T20:35:43.187Z,13.10
2023-04-20T20:38:11.257Z,12.47
2023-04-20T20:40:39.995Z,12.80
2023-04-20T20:43:07.049Z,12.50
2023-04-20T20:45:33.979Z,13.23
2023-04-20T20:48:01.250Z,12.60
2023-04-20T20:50:28.543Z,12.17
2023-04-20T20:52:55.660Z,12.63
2023-04-20T20:55:22.776Z,13.17
2023-04-20T20:57:49.692Z,12.73
2023-04-20T21:00:16.589Z,12.40
2023-04-20T21:02:43.723Z,13.93
2023-04-20T21:05:11.000Z,12.97
2023-04-20T21:07:38.208Z,12.97
2023-04-20T21:10:07.278Z,13.17
2023-04-20T21:12:34.157Z,12.33
2023-04-20T21:15:01.378Z,14.17
2023-04-20T21:17:28.474Z,13.30
2023-04-20T21:19:55.560Z,13.07
2023-04-20T21:22:22.771Z,13.40
2023-04-20T21:24:51.105Z,13.47
2023-04-20T21:27:18.005Z,13.50
2023-04-20T21:29:44.844Z,14.03
2023-04-20T21:32:11.948Z,13.60
2023-04-20T21:34:38.957Z,14.57
2023-04-20T21:37:07.341Z,13.37
2023-04-20T21:39:34.337Z,13.77
2023-04-20T21:42:01.711Z,13.20
2023-04-20T21:44:28.745Z,14.23
2023-04-20T21:46:55.818Z,14.57
2023-04-20T21:49:22.890Z,14.70
2023-04-20T21:51:50.067Z,14.83
2023-04-20T21:54:17.225Z,13.00
2023-04-20T21:56:44.226Z,14.10
2023-04-20T21:59:11.315Z,14.37
2023-04-20T22:01:38.527Z,14.83
2023-04-20T22:04:06.058Z,13.90
2023-04-20T22:06:36.488Z,13.47
2023-04-20T22:09:04.771Z,15.03
2023-04-20T22:11:36.665Z,14.30
2023-04-20T22:14:04.766Z,14.10
2023-04-20T22:16:34.208Z,13.90
2023-04-20T22:19:01.565Z,14.83
2023-04-20T22:21:28.993Z,13.80
2023-04-20T22:23:55.915Z,14.40
2023-04-20T22:26:23.044Z,13.60
2023-04-20T22:28:50.137Z,13.47
2023-04-20T22:31:17.846Z,14.13
2023-04-20T22:33:44.921Z,13.63
2023-04-20T22:36:12.090Z,13.87
2023-04-20T22:38:39.012Z,14.57
2023-04-20T22:41:08.481Z,13.93
2023-04-20T22:43:35.592Z,14.30
2023-04-20T22:46:02.483Z,14.47
2023-04-20T22:48:29.465Z,14.70
2023-04-20T22:51:00.866Z,14.50
2023-04-20T22:53:30.385Z,14.97
2023-04-20T22:56:07.387Z,14.67
2023-04-20T22:58:35.150Z,14.40
2023-04-20T23:01:03.806Z,14.70
2023-04-20T23:03:31.417Z,14.07
2023-04-20T23:05:59.359Z,14.00
2023-04-20T23:08:26.452Z,13.90
2023-04-20T23:10:56.476Z,14.37
2023-04-20T23:13:26.661Z,15.03
2023-04-20T23:15:53.912Z,15.17
2023-04-20T23:18:21.923Z,14.40
2023-04-20T23:20:48.845Z,13.83
2023-04-20T23:23:15.774Z,15.40
2023-04-20T23:25:42.713Z,15.33
2023-04-20T23:28:10.062Z,14.33
2023-04-20T23:30:36.963Z,15.20
2023-04-20T23:33:03.947Z,15.30
2023-04-20T23:35:31.215Z,15.17
2023-04-20T23:37:58.389Z,14.67
2023-04-20T23:40:26.785Z,14.87
2023-04-20T23:42:56.153Z,15.60
2023-04-20T23:45:23.545Z,15.83
2023-04-20T23:47:50.510Z,15.13
2023-04-20T23:50:17.768Z,14.83
2023-04-20T23:52:44.691Z,16.03
2023-04-20T23:55:11.866Z,15.53
2023-04-20T23:57:38.889Z,14.60
